sensor_id;sensor_type;location;lat;lon;timestamp;temperature;humidity
53520;DHT22;39397;53.204;5.778;2022-08-06T00:01:53;13.90;99.90
53520;DHT22;39397;53.204;5.778;2022-08-06T00:04:20;13.30;99.90
53520;DHT22;39397;53.204;5.778;2022-08-06T00:06:45;13.30;99.90
53520;DHT22;39397;53.204;5.778;2022-08-06T00:09:11;13.20;99.90
53520;DHT22;39397;53.204;5.778;2022-08-06T00:11:38;13.30;99.90
53520;DHT22;39397;53.204;5.778;2022-08-06T00:14:04;13.30;99.90
53520;DHT22;39397;53.204;5.778;2022-08-06T00:16:30;13.30;99.90
53520;DHT22;39397;53.204;5.778;2022-08-06T00:18:56;13.70;99.90
53520;DHT22;39397;53.204;5.778;2022-08-06T00:21:22;13.20;99.90
53520;DHT22;39397;53.204;5.778;2022-08-06T00:23:47;13.40;99.90
53520;DHT22;39397;53.204;5.778;2022-08-06T00:26:13;14.00;99.90
53520;DHT22;39397;53.204;5.778;2022-08-06T00:28:38;14.40;99.90
53520;DHT22;39397;53.204;5.778;2022-08-06T00:31:05;13.40;99.90
53520;DHT22;39397;53.204;5.778;2022-08-06T00:33:33;13.20;99.90
53520;DHT22;39397;53.204;5.778;2022-08-06T00:35:58;13.20;99.90
53520;DHT22;39397;53.204;5.778;2022-08-06T00:38:24;13.70;99.90
53520;DHT22;39397;53.204;5.778;2022-08-06T00:40:50;13.20;99.90
53520;DHT22;39397;53.204;5.778;2022-08-06T00:43:17;13.20;99.90
53520;DHT22;39397;53.204;5.778;2022-08-06T00:45:43;13.10;99.90
53520;DHT22;39397;53.204;5.778;2022-08-06T00:48:08;14.30;99.90
53520;DHT22;39397;53.204;5.778;2022-08-06T00:50:34;12.90;99.90
53520;DHT22;39397;53.204;5.778;2022-08-06T00:53:01;13.10;99.90
53520;DHT22;39397;53.204;5.778;2022-08-06T00:55:27;12.90;99.90
53520;DHT22;39397;53.204;5.778;2022-08-06T00:57:53;12.90;99.90
53520;DHT22;39397;53.204;5.778;2022-08-06T01:00:18;12.90;99.90
53520;DHT22;39397;53.204;5.778;2022-08-06T01:02:44;12.90;99.90
53520;DHT22;39397;53.204;5.778;2022-08-06T01:05:10;13.00;99.90
53520;DHT22;39397;53.204;5.778;2022-08-06T01:07:35;12.70;99.90
53520;DHT22;39397;53.204;5.778;2022-08-06T01:10:01;12.70;99.90
53520;DHT22;39397;53.204;5.778;2022-08-06T01:12:27;12.70;99.90
53520;DHT22;39397;53.204;5.778;2022-08-06T01:14:53;12.70;99.90
53520;DHT22;39397;53.204;5.778;2022-08-06T01:17:43;13.00;99.90
53520;DHT22;39397;53.204;5.778;2022-08-06T01:20:17;12.70;99.90
53520;DHT22;39397;53.204;5.778;2022-08-06T01:25:42;12.60;99.90
53520;DHT22;39397;53.204;5.778;2022-08-06T01:29:13;12.50;99.90
53520;DHT22;39397;53.204;5.778;2022-08-06T01:31:17;12.50;99.90
53520;DHT22;39397;53.204;5.778;2022-08-06T01:33:49;12.60;99.90
53520;DHT22;39397;53.204;5.778;2022-08-06T01:36:22;12.50;99.90
53520;DHT22;39397;53.204;5.778;2022-08-06T01:38:51;12.40;99.90
53520;DHT22;39397;53.204;5.778;2022-08-06T01:41:21;12.40;99.90
53520;DHT22;39397;53.204;5.778;2022-08-06T01:44:31;13.30;99.90
53520;DHT22;39397;53.204;5.778;2022-08-06T01:47:02;12.40;99.90
53520;DHT22;39397;53.204;5.778;2022-08-06T01:49:30;12.50;99.90
53520;DHT22;39397;53.204;5.778;2022-08-06T01:51:59;12.40;99.90
53520;DHT22;39397;53.204;5.778;2022-08-06T01:54:28;12.50;99.90
53520;DHT22;39397;53.204;5.778;2022-08-06T01:56:55;12.30;99.90
53520;DHT22;39397;53.204;5.778;2022-08-06T01:59:31;12.40;99.90
53520;DHT22;39397;53.204;5.778;2022-08-06T02:01:59;12.40;99.90
53520;DHT22;39397;53.204;5.778;2022-08-06T02:04:29;12.40;99.90
53520;DHT22;39397;53.204;5.778;2022-08-06T02:06:58;12.90;99.90
53520;DHT22;39397;53.204;5.778;2022-08-06T02:09:26;12.30;99.90
53520;DHT22;39397;53.204;5.778;2022-08-06T02:12:40;13.00;99.90
53520;DHT22;39397;53.204;5.778;2022-08-06T02:14:51;12.30;99.90
53520;DHT22;39397;53.204;5.778;2022-08-06T02:17:20;12.40;99.90
53520;DHT22;39397;53.204;5.778;2022-08-06T02:19:50;12.30;99.90
53520;DHT22;39397;53.204;5.778;2022-08-06T02:22:17;12.20;99.90
53520;DHT22;39397;53.204;5.778;2022-08-06T02:24:46;12.30;99.90
53520;DHT22;39397;53.204;5.778;2022-08-06T02:27:13;13.30;99.90
53520;DHT22;39397;53.204;5.778;2022-08-06T02:29:40;12.20;99.90
53520;DHT22;39397;53.204;5.778;2022-08-06T02:32:07;12.20;99.90
53520;DHT22;39397;53.204;5.778;2022-08-06T02:34:34;12.20;99.90
53520;DHT22;39397;53.204;5.778;2022-08-06T02:37:08;12.80;99.90
53520;DHT22;39397;53.204;5.778;2022-08-06T02:39:41;13.60;99.90
53520;DHT22;39397;53.204;5.778;2022-08-06T02:45:02;12.10;99.90
53520;DHT22;39397;53.204;5.778;2022-08-06T02:50:34;12.20;99.90
53520;DHT22;39397;53.204;5.778;2022-08-06T02:53:13;12.10;99.90
53520;DHT22;39397;53.204;5.778;2022-08-06T02:55:45;12.10;99.90
53520;DHT22;39397;53.204;5.778;2022-08-06T02:58:32;12.30;99.90
53520;DHT22;39397;53.204;5.778;2022-08-06T03:01:04;12.20;99.90
53520;DHT22;39397;53.204;5.778;2022-08-06T03:03:33;12.20;99.90
53520;DHT22;39397;53.204;5.778;2022-08-06T03:06:02;12.60;99.90
53520;DHT22;39397;53.204;5.778;2022-08-06T03:08:29;12.20;99.90
53520;DHT22;39397;53.204;5.778;2022-08-06T03:10:57;13.30;99.90
53520;DHT22;39397;53.204;5.778;2022-08-06T03:13:24;12.30;99.90
53520;DHT22;39397;53.204;5.778;2022-08-06T03:15:50;12.40;99.90
53520;DHT22;39397;53.204;5.778;2022-08-06T03:18:18;12.60;99.90
53520;DHT22;39397;53.204;5.778;2022-08-06T03:20:45;13.60;99.90
53520;DHT22;39397;53.204;5.778;2022-08-06T03:23:12;12.50;99.90
53520;DHT22;39397;53.204;5.778;2022-08-06T03:25:39;12.50;99.90
53520;DHT22;39397;53.204;5.778;2022-08-06T03:28:06;13.10;99.90
53520;DHT22;39397;53.204;5.778;2022-08-06T03:30:33;12.50;99.90
53520;DHT22;39397;53.204;5.778;2022-08-06T03:33:10;14.00;99.90
53520;DHT22;39397;53.204;5.778;2022-08-06T03:35:36;12.50;99.90
53520;DHT22;39397;53.204;5.778;2022-08-06T03:38:03;12.50;99.90
53520;DHT22;39397;53.204;5.778;2022-08-06T03:40:32;12.50;99.90
53520;DHT22;39397;53.204;5.778;2022-08-06T03:42:59;13.70;99.90
53520;DHT22;39397;53.204;5.778;2022-08-06T03:45:26;12.40;99.90
53520;DHT22;39397;53.204;5.778;2022-08-06T03:47:55;12.50;99.90
53520;DHT22;39397;53.204;5.778;2022-08-06T03:50:31;12.90;99.90
53520;DHT22;39397;53.204;5.778;2022-08-06T03:53:03;12.70;99.90
53520;DHT22;39397;53.204;5.778;2022-08-06T03:55:33;12.70;99.90
53520;DHT22;39397;53.204;5.778;2022-08-06T03:58:03;12.60;99.90
53520;DHT22;39397;53.204;5.778;2022-08-06T04:00:33;13.60;99.90
53520;DHT22;39397;53.204;5.778;2022-08-06T04:03:00;12.60;99.90
53520;DHT22;39397;53.204;5.778;2022-08-06T04:05:29;12.60;99.90
53520;DHT22;39397;53.204;5.778;2022-08-06T04:08:01;12.60;99.90
53520;DHT22;39397;53.204;5.778;2022-08-06T04:10:37;13.00;99.90
53520;DHT22;39397;53.204;5.778;2022-08-06T04:13:09;12.60;99.90
53520;DHT22;39397;53.204;5.778;2022-08-06T04:15:36;12.60;99.90
53520;DHT22;39397;53.204;5.778;2022-08-06T04:18:07;13.00;99.90
53520;DHT22;39397;53.204;5.778;2022-08-06T04:20:34;12.50;99.90
53520;DHT22;39397;53.204;5.778;2022-08-06T04:23:01;13.60;99.90
53520;DHT22;39397;53.204;5.778;2022-08-06T04:25:30;12.40;99.90
53520;DHT22;39397;53.204;5.778;2022-08-06T04:27:57;12.50;99.90
53520;DHT22;39397;53.204;5.778;2022-08-06T04:30:25;12.50;99.90
53520;DHT22;39397;53.204;5.778;2022-08-06T04:32:52;12.50;99.90
53520;DHT22;39397;53.204;5.778;2022-08-06T04:35:19;12.70;99.90
53520;DHT22;39397;53.204;5.778;2022-08-06T04:37:47;12.60;99.90
53520;DHT22;39397;53.204;5.778;2022-08-06T04:40:13;12.70;99.90
53520;DHT22;39397;53.204;5.778;2022-08-06T04:42:40;12.80;99.90
53520;DHT22;39397;53.204;5.778;2022-08-06T04:45:10;13.00;99.90
53520;DHT22;39397;53.204;5.778;2022-08-06T04:47:36;12.90;99.90
53520;DHT22;39397;53.204;5.778;2022-08-06T04:50:03;12.90;99.90
53520;DHT22;39397;53.204;5.778;2022-08-06T04:52:30;13.10;99.90
53520;DHT22;39397;53.204;5.778;2022-08-06T04:54:55;13.10;99.90
53520;DHT22;39397;53.204;5.778;2022-08-06T04:57:21;13.50;99.90
53520;DHT22;39397;53.204;5.778;2022-08-06T04:59:47;14.00;99.90
53520;DHT22;39397;53.204;5.778;2022-08-06T05:02:13;13.40;99.90
53520;DHT22;39397;53.204;5.778;2022-08-06T05:04:39;13.40;99.90
53520;DHT22;39397;53.204;5.778;2022-08-06T05:07:18;14.50;99.90
53520;DHT22;39397;53.204;5.778;2022-08-06T05:09:46;13.60;99.90
53520;DHT22;39397;53.204;5.778;2022-08-06T05:12:23;13.70;99.90
53520;DHT22;39397;53.204;5.778;2022-08-06T05:14:54;13.70;99.90
53520;DHT22;39397;53.204;5.778;2022-08-06T05:17:26;13.80;99.90
53520;DHT22;39397;53.204;5.778;2022-08-06T05:19:58;13.90;99.90
53520;DHT22;39397;53.204;5.778;2022-08-06T05:22:25;14.00;99.90
53520;DHT22;39397;53.204;5.778;2022-08-06T05:24:52;14.10;99.90
53520;DHT22;39397;53.204;5.778;2022-08-06T05:27:18;14.20;99.90
53520;DHT22;39397;53.204;5.778;2022-08-06T05:29:45;15.20;99.90
53520;DHT22;39397;53.204;5.778;2022-08-06T05:32:10;14.30;99.90
53520;DHT22;39397;53.204;5.778;2022-08-06T05:34:36;14.50;99.90
53520;DHT22;39397;53.204;5.778;2022-08-06T05:37:02;14.40;99.90
53520;DHT22;39397;53.204;5.778;2022-08-06T05:39:28;14.50;99.90
53520;DHT22;39397;53.204;5.778;2022-08-06T05:41:53;14.50;99.90
53520;DHT22;39397;53.204;5.778;2022-08-06T05:44:19;14.70;99.90
53520;DHT22;39397;53.204;5.778;2022-08-06T05:46:52;14.70;99.90
53520;DHT22;39397;53.204;5.778;2022-08-06T05:49:34;14.90;99.90
53520;DHT22;39397;53.204;5.778;2022-08-06T05:52:13;15.20;99.90
53520;DHT22;39397;53.204;5.778;2022-08-06T05:54:48;15.40;99.90
53520;DHT22;39397;53.204;5.778;2022-08-06T05:57:18;15.50;99.90
53520;DHT22;39397;53.204;5.778;2022-08-06T05:59:50;15.60;99.90
53520;DHT22;39397;53.204;5.778;2022-08-06T06:02:18;15.80;99.90
53520;DHT22;39397;53.204;5.778;2022-08-06T06:04:46;16.00;99.90
53520;DHT22;39397;53.204;5.778;2022-08-06T06:07:12;16.10;99.90
53520;DHT22;39397;53.204;5.778;2022-08-06T06:09:41;16.30;99.90
53520;DHT22;39397;53.204;5.778;2022-08-06T06:12:08;16.60;99.90
53520;DHT22;39397;53.204;5.778;2022-08-06T06:14:42;16.50;99.90
53520;DHT22;39397;53.204;5.778;2022-08-06T06:17:30;16.60;99.90
53520;DHT22;39397;53.204;5.778;2022-08-06T06:23:29;16.40;99.90
53520;DHT22;39397;53.204;5.778;2022-08-06T06:26:17;16.50;99.90
53520;DHT22;39397;53.204;5.778;2022-08-06T06:31:33;16.50;99.90
53520;DHT22;39397;53.204;5.778;2022-08-06T06:37:01;16.50;99.90
53520;DHT22;39397;53.204;5.778;2022-08-06T06:40:18;16.50;99.90
53520;DHT22;39397;53.204;5.778;2022-08-06T06:43:18;16.60;99.90
53520;DHT22;39397;53.204;5.778;2022-08-06T06:45:55;16.70;99.90
53520;DHT22;39397;53.204;5.778;2022-08-06T06:48:32;16.70;99.90
53520;DHT22;39397;53.204;5.778;2022-08-06T06:51:03;16.70;99.90
53520;DHT22;39397;53.204;5.778;2022-08-06T06:53:34;16.90;99.90
53520;DHT22;39397;53.204;5.778;2022-08-06T06:56:01;17.00;99.90
53520;DHT22;39397;53.204;5.778;2022-08-06T06:58:37;17.10;99.90
53520;DHT22;39397;53.204;5.778;2022-08-06T07:01:07;17.10;99.90
53520;DHT22;39397;53.204;5.778;2022-08-06T07:03:37;17.10;99.90
53520;DHT22;39397;53.204;5.778;2022-08-06T07:06:04;17.40;99.90
53520;DHT22;39397;53.204;5.778;2022-08-06T07:08:32;17.30;99.90
53520;DHT22;39397;53.204;5.778;2022-08-06T07:11:00;17.30;99.90
53520;DHT22;39397;53.204;5.778;2022-08-06T07:13:27;17.60;99.90
53520;DHT22;39397;53.204;5.778;2022-08-06T07:15:55;17.50;99.90
53520;DHT22;39397;53.204;5.778;2022-08-06T07:18:24;17.50;99.90
53520;DHT22;39397;53.204;5.778;2022-08-06T07:20:52;17.60;99.90
53520;DHT22;39397;53.204;5.778;2022-08-06T07:23:19;17.70;99.90
53520;DHT22;39397;53.204;5.778;2022-08-06T07:25:47;17.90;99.90
53520;DHT22;39397;53.204;5.778;2022-08-06T07:28:16;18.00;99.90
53520;DHT22;39397;53.204;5.778;2022-08-06T07:30:43;18.20;99.90
53520;DHT22;39397;53.204;5.778;2022-08-06T07:33:10;18.30;99.90
53520;DHT22;39397;53.204;5.778;2022-08-06T07:35:40;18.40;99.90
53520;DHT22;39397;53.204;5.778;2022-08-06T07:38:08;18.50;99.90
53520;DHT22;39397;53.204;5.778;2022-08-06T07:40:37;18.50;99.90
53520;DHT22;39397;53.204;5.778;2022-08-06T07:43:23;18.60;99.90
53520;DHT22;39397;53.204;5.778;2022-08-06T07:45:52;18.50;99.90
53520;DHT22;39397;53.204;5.778;2022-08-06T07:48:22;18.60;99.90
53520;DHT22;39397;53.204;5.778;2022-08-06T07:50:50;18.70;99.90
53520;DHT22;39397;53.204;5.778;2022-08-06T07:53:17;18.80;99.90
53520;DHT22;39397;53.204;5.778;2022-08-06T07:55:45;18.90;99.90
53520;DHT22;39397;53.204;5.778;2022-08-06T07:58:11;19.00;99.90
53520;DHT22;39397;53.204;5.778;2022-08-06T08:00:38;19.10;99.90
53520;DHT22;39397;53.204;5.778;2022-08-06T08:03:06;19.00;99.90
53520;DHT22;39397;53.204;5.778;2022-08-06T08:05:50;18.90;99.90
53520;DHT22;39397;53.204;5.778;2022-08-06T08:08:36;18.70;99.90
53520;DHT22;39397;53.204;5.778;2022-08-06T08:11:02;18.70;99.90
53520;DHT22;39397;53.204;5.778;2022-08-06T08:13:29;18.60;99.90
53520;DHT22;39397;53.204;5.778;2022-08-06T08:15:56;18.50;99.90
53520;DHT22;39397;53.204;5.778;2022-08-06T08:18:28;18.60;99.90
53520;DHT22;39397;53.204;5.778;2022-08-06T08:20:55;18.80;99.90
53520;DHT22;39397;53.204;5.778;2022-08-06T08:23:22;18.70;99.90
53520;DHT22;39397;53.204;5.778;2022-08-06T08:25:48;18.70;99.90
53520;DHT22;39397;53.204;5.778;2022-08-06T08:28:14;18.70;99.90
53520;DHT22;39397;53.204;5.778;2022-08-06T08:30:40;19.00;99.80
53520;DHT22;39397;53.204;5.778;2022-08-06T08:33:06;19.10;99.80
53520;DHT22;39397;53.204;5.778;2022-08-06T08:35:32;19.30;98.70
53520;DHT22;39397;53.204;5.778;2022-08-06T08:37:57;19.40;98.40
53520;DHT22;39397;53.204;5.778;2022-08-06T08:40:24;19.60;98.00
53520;DHT22;39397;53.204;5.778;2022-08-06T08:42:52;19.70;97.60
53520;DHT22;39397;53.204;5.778;2022-08-06T08:45:21;19.70;97.50
53520;DHT22;39397;53.204;5.778;2022-08-06T08:47:52;19.60;97.20
53520;DHT22;39397;53.204;5.778;2022-08-06T08:50:20;19.90;97.10
53520;DHT22;39397;53.204;5.778;2022-08-06T08:52:48;19.90;96.70
53520;DHT22;39397;53.204;5.778;2022-08-06T08:55:15;20.00;96.00
53520;DHT22;39397;53.204;5.778;2022-08-06T08:57:42;19.90;95.80
53520;DHT22;39397;53.204;5.778;2022-08-06T09:00:09;19.70;96.00
53520;DHT22;39397;53.204;5.778;2022-08-06T09:02:37;19.70;95.80
53520;DHT22;39397;53.204;5.778;2022-08-06T09:05:05;19.60;95.70
53520;DHT22;39397;53.204;5.778;2022-08-06T09:07:31;19.40;95.70
53520;DHT22;39397;53.204;5.778;2022-08-06T09:09:58;19.70;95.70
53520;DHT22;39397;53.204;5.778;2022-08-06T09:12:24;19.70;95.60
53520;DHT22;39397;53.204;5.778;2022-08-06T09:14:50;19.90;95.50
53520;DHT22;39397;53.204;5.778;2022-08-06T09:17:16;20.00;95.60
53520;DHT22;39397;53.204;5.778;2022-08-06T09:19:42;20.10;95.50
53520;DHT22;39397;53.204;5.778;2022-08-06T09:22:09;20.20;95.80
53520;DHT22;39397;53.204;5.778;2022-08-06T09:24:36;20.30;95.30
53520;DHT22;39397;53.204;5.778;2022-08-06T09:29:32;20.30;94.70
53520;DHT22;39397;53.204;5.778;2022-08-06T09:31:58;20.30;94.50
53520;DHT22;39397;53.204;5.778;2022-08-06T09:34:32;20.30;94.30
53520;DHT22;39397;53.204;5.778;2022-08-06T09:36:58;20.30;94.10
53520;DHT22;39397;53.204;5.778;2022-08-06T09:39:38;20.00;94.30
53520;DHT22;39397;53.204;5.778;2022-08-06T09:42:07;20.20;93.70
53520;DHT22;39397;53.204;5.778;2022-08-06T09:44:34;20.10;94.50
53520;DHT22;39397;53.204;5.778;2022-08-06T09:47:00;20.10;94.80
53520;DHT22;39397;53.204;5.778;2022-08-06T09:49:27;20.00;95.00
53520;DHT22;39397;53.204;5.778;2022-08-06T09:52:31;20.00;95.00
53520;DHT22;39397;53.204;5.778;2022-08-06T09:54:56;20.10;94.30
53520;DHT22;39397;53.204;5.778;2022-08-06T09:57:23;20.10;94.20
53520;DHT22;39397;53.204;5.778;2022-08-06T09:59:49;19.80;94.30
53520;DHT22;39397;53.204;5.778;2022-08-06T10:02:16;19.70;94.30
53520;DHT22;39397;53.204;5.778;2022-08-06T10:04:43;19.80;94.40
53520;DHT22;39397;53.204;5.778;2022-08-06T10:07:10;19.80;94.50
53520;DHT22;39397;53.204;5.778;2022-08-06T10:09:36;19.70;94.20
53520;DHT22;39397;53.204;5.778;2022-08-06T10:12:20;19.70;94.00
53520;DHT22;39397;53.204;5.778;2022-08-06T10:14:46;19.60;94.20
53520;DHT22;39397;53.204;5.778;2022-08-06T10:17:17;19.60;94.00
53520;DHT22;39397;53.204;5.778;2022-08-06T10:19:45;19.60;93.20
53520;DHT22;39397;53.204;5.778;2022-08-06T10:22:14;19.70;93.90
53520;DHT22;39397;53.204;5.778;2022-08-06T10:24:48;19.80;93.40
53520;DHT22;39397;53.204;5.778;2022-08-06T10:27:19;20.00;92.90
53520;DHT22;39397;53.204;5.778;2022-08-06T10:29:57;20.00;93.40
53520;DHT22;39397;53.204;5.778;2022-08-06T10:32:47;20.30;92.60
53520;DHT22;39397;53.204;5.778;2022-08-06T10:35:20;20.30;92.30
53520;DHT22;39397;53.204;5.778;2022-08-06T10:37:51;20.30;92.80
53520;DHT22;39397;53.204;5.778;2022-08-06T10:40:20;20.40;92.90
53520;DHT22;39397;53.204;5.778;2022-08-06T10:42:47;20.40;92.70
53520;DHT22;39397;53.204;5.778;2022-08-06T10:45:13;20.30;92.50
53520;DHT22;39397;53.204;5.778;2022-08-06T10:47:42;20.10;92.60
53520;DHT22;39397;53.204;5.778;2022-08-06T10:50:09;20.10;92.40
53520;DHT22;39397;53.204;5.778;2022-08-06T10:52:36;20.30;92.50
53520;DHT22;39397;53.204;5.778;2022-08-06T10:55:06;20.40;92.00
53520;DHT22;39397;53.204;5.778;2022-08-06T10:57:32;20.40;91.50
53520;DHT22;39397;53.204;5.778;2022-08-06T11:00:00;20.40;91.50
53520;DHT22;39397;53.204;5.778;2022-08-06T11:05:00;20.40;91.20
53520;DHT22;39397;53.204;5.778;2022-08-06T11:10:37;20.70;90.30
53520;DHT22;39397;53.204;5.778;2022-08-06T11:15:50;20.80;89.50
53520;DHT22;39397;53.204;5.778;2022-08-06T11:18:16;21.00;90.40
53520;DHT22;39397;53.204;5.778;2022-08-06T11:20:47;21.00;89.20
53520;DHT22;39397;53.204;5.778;2022-08-06T11:28:12;21.50;87.20
53520;DHT22;39397;53.204;5.778;2022-08-06T11:30:52;21.50;88.50
53520;DHT22;39397;53.204;5.778;2022-08-06T11:35:47;21.30;89.00
53520;DHT22;39397;53.204;5.778;2022-08-06T11:41:09;21.70;88.50
53520;DHT22;39397;53.204;5.778;2022-08-06T11:46:41;21.20;87.50
53520;DHT22;39397;53.204;5.778;2022-08-06T11:49:16;21.00;88.40
53520;DHT22;39397;53.204;5.778;2022-08-06T11:59:27;21.20;87.10
53520;DHT22;39397;53.204;5.778;2022-08-06T12:01:53;21.40;87.30
53520;DHT22;39397;53.204;5.778;2022-08-06T12:07:29;21.70;85.70
53520;DHT22;39397;53.204;5.778;2022-08-06T12:10:11;21.60;83.80
53520;DHT22;39397;53.204;5.778;2022-08-06T12:12:45;21.40;84.60
53520;DHT22;39397;53.204;5.778;2022-08-06T12:17:56;21.40;85.70
53520;DHT22;39397;53.204;5.778;2022-08-06T12:20:33;21.70;84.60
53520;DHT22;39397;53.204;5.778;2022-08-06T12:23:11;21.70;85.70
53520;DHT22;39397;53.204;5.778;2022-08-06T12:28:05;21.30;86.50
53520;DHT22;39397;53.204;5.778;2022-08-06T12:30:52;21.10;86.40
53520;DHT22;39397;53.204;5.778;2022-08-06T12:33:20;21.10;85.70
53520;DHT22;39397;53.204;5.778;2022-08-06T12:38:20;20.80;85.90
53520;DHT22;39397;53.204;5.778;2022-08-06T12:40:57;20.70;87.40
53520;DHT22;39397;53.204;5.778;2022-08-06T12:43:24;20.90;86.20
53520;DHT22;39397;53.204;5.778;2022-08-06T12:46:07;21.00;86.30
53520;DHT22;39397;53.204;5.778;2022-08-06T12:48:34;21.20;86.40
53520;DHT22;39397;53.204;5.778;2022-08-06T12:51:11;21.20;85.90
53520;DHT22;39397;53.204;5.778;2022-08-06T12:53:54;21.20;85.40
53520;DHT22;39397;53.204;5.778;2022-08-06T12:56:24;21.20;83.50
53520;DHT22;39397;53.204;5.778;2022-08-06T12:58:51;21.10;85.80
53520;DHT22;39397;53.204;5.778;2022-08-06T13:01:20;21.10;85.50
53520;DHT22;39397;53.204;5.778;2022-08-06T13:03:54;21.20;86.10
53520;DHT22;39397;53.204;5.778;2022-08-06T13:06:24;21.10;84.80
53520;DHT22;39397;53.204;5.778;2022-08-06T13:08:52;21.30;87.00
53520;DHT22;39397;53.204;5.778;2022-08-06T13:11:18;21.10;86.80
53520;DHT22;39397;53.204;5.778;2022-08-06T13:13:50;21.30;85.90
53520;DHT22;39397;53.204;5.778;2022-08-06T13:16:17;21.30;85.30
53520;DHT22;39397;53.204;5.778;2022-08-06T13:19:03;21.30;85.10
53520;DHT22;39397;53.204;5.778;2022-08-06T13:21:30;21.40;85.20
53520;DHT22;39397;53.204;5.778;2022-08-06T13:23:56;21.20;85.00
53520;DHT22;39397;53.204;5.778;2022-08-06T13:26:26;21.30;85.40
53520;DHT22;39397;53.204;5.778;2022-08-06T13:29:05;21.10;86.00
53520;DHT22;39397;53.204;5.778;2022-08-06T13:31:36;21.30;87.10
53520;DHT22;39397;53.204;5.778;2022-08-06T13:34:05;21.20;84.60
53520;DHT22;39397;53.204;5.778;2022-08-06T13:36:32;21.40;86.10
53520;DHT22;39397;53.204;5.778;2022-08-06T13:38:59;21.50;85.40
53520;DHT22;39397;53.204;5.778;2022-08-06T13:41:29;21.50;85.00
53520;DHT22;39397;53.204;5.778;2022-08-06T13:43:58;21.60;84.50
53520;DHT22;39397;53.204;5.778;2022-08-06T13:46:25;21.50;84.00
53520;DHT22;39397;53.204;5.778;2022-08-06T13:48:52;21.40;84.20
53520;DHT22;39397;53.204;5.778;2022-08-06T13:51:21;21.50;84.20
53520;DHT22;39397;53.204;5.778;2022-08-06T13:53:47;21.50;84.00
53520;DHT22;39397;53.204;5.778;2022-08-06T13:56:14;21.50;83.70
53520;DHT22;39397;53.204;5.778;2022-08-06T13:58:40;21.60;83.70
53520;DHT22;39397;53.204;5.778;2022-08-06T14:01:06;21.70;83.00
53520;DHT22;39397;53.204;5.778;2022-08-06T14:03:32;21.70;82.10
53520;DHT22;39397;53.204;5.778;2022-08-06T14:05:58;21.60;82.30
53520;DHT22;39397;53.204;5.778;2022-08-06T14:08:23;21.40;82.80
53520;DHT22;39397;53.204;5.778;2022-08-06T14:10:49;21.30;82.90
53520;DHT22;39397;53.204;5.778;2022-08-06T14:13:15;21.50;83.30
53520;DHT22;39397;53.204;5.778;2022-08-06T14:15:44;21.70;82.20
53520;DHT22;39397;53.204;5.778;2022-08-06T14:18:10;21.80;82.50
53520;DHT22;39397;53.204;5.778;2022-08-06T14:20:36;21.90;81.70
53520;DHT22;39397;53.204;5.778;2022-08-06T14:23:01;21.90;82.10
53520;DHT22;39397;53.204;5.778;2022-08-06T14:25:27;21.80;82.70
53520;DHT22;39397;53.204;5.778;2022-08-06T14:27:53;21.80;83.20
53520;DHT22;39397;53.204;5.778;2022-08-06T14:30:20;21.80;83.30
53520;DHT22;39397;53.204;5.778;2022-08-06T14:32:47;22.20;82.90
53520;DHT22;39397;53.204;5.778;2022-08-06T14:35:14;22.30;81.50
53520;DHT22;39397;53.204;5.778;2022-08-06T14:37:41;22.30;80.00
53520;DHT22;39397;53.204;5.778;2022-08-06T14:40:11;22.40;78.30
53520;DHT22;39397;53.204;5.778;2022-08-06T14:42:37;22.30;77.90
53520;DHT22;39397;53.204;5.778;2022-08-06T14:45:21;22.30;77.80
53520;DHT22;39397;53.204;5.778;2022-08-06T14:47:47;23.10;79.60
53520;DHT22;39397;53.204;5.778;2022-08-06T14:50:13;22.70;79.60
53520;DHT22;39397;53.204;5.778;2022-08-06T14:52:39;22.80;80.00
53520;DHT22;39397;53.204;5.778;2022-08-06T14:55:06;22.80;79.60
53520;DHT22;39397;53.204;5.778;2022-08-06T14:57:33;23.10;78.40
53520;DHT22;39397;53.204;5.778;2022-08-06T15:00:01;23.10;78.30
53520;DHT22;39397;53.204;5.778;2022-08-06T15:02:26;23.30;78.20
53520;DHT22;39397;53.204;5.778;2022-08-06T15:04:53;23.40;78.00
53520;DHT22;39397;53.204;5.778;2022-08-06T15:07:20;23.50;78.10
53520;DHT22;39397;53.204;5.778;2022-08-06T15:09:46;23.60;77.60
53520;DHT22;39397;53.204;5.778;2022-08-06T15:12:12;23.40;77.00
53520;DHT22;39397;53.204;5.778;2022-08-06T15:14:38;23.50;76.80
53520;DHT22;39397;53.204;5.778;2022-08-06T15:17:04;23.40;76.50
53520;DHT22;39397;53.204;5.778;2022-08-06T15:19:29;23.30;76.60
53520;DHT22;39397;53.204;5.778;2022-08-06T15:21:55;23.20;76.70
53520;DHT22;39397;53.204;5.778;2022-08-06T15:24:21;23.10;76.20
53520;DHT22;39397;53.204;5.778;2022-08-06T15:26:47;23.20;74.80
53520;DHT22;39397;53.204;5.778;2022-08-06T15:29:13;23.30;73.80
53520;DHT22;39397;53.204;5.778;2022-08-06T15:31:39;23.60;73.70
53520;DHT22;39397;53.204;5.778;2022-08-06T15:34:05;23.80;73.80
53520;DHT22;39397;53.204;5.778;2022-08-06T15:36:31;23.50;73.60
53520;DHT22;39397;53.204;5.778;2022-08-06T15:38:57;23.40;74.00
53520;DHT22;39397;53.204;5.778;2022-08-06T15:41:23;23.50;73.90
53520;DHT22;39397;53.204;5.778;2022-08-06T15:43:50;23.50;73.10
53520;DHT22;39397;53.204;5.778;2022-08-06T15:46:16;23.80;72.50
53520;DHT22;39397;53.204;5.778;2022-08-06T15:48:42;24.00;70.90
53520;DHT22;39397;53.204;5.778;2022-08-06T15:51:07;24.10;70.60
53520;DHT22;39397;53.204;5.778;2022-08-06T15:53:33;24.60;70.00
53520;DHT22;39397;53.204;5.778;2022-08-06T15:55:59;24.70;69.40
53520;DHT22;39397;53.204;5.778;2022-08-06T15:58:24;25.20;69.40
53520;DHT22;39397;53.204;5.778;2022-08-06T16:00:50;25.50;68.10
53520;DHT22;39397;53.204;5.778;2022-08-06T16:03:16;25.40;68.40
53520;DHT22;39397;53.204;5.778;2022-08-06T16:05:42;25.70;68.40
53520;DHT22;39397;53.204;5.778;2022-08-06T16:08:09;26.00;66.90
53520;DHT22;39397;53.204;5.778;2022-08-06T16:10:40;25.90;66.00
53520;DHT22;39397;53.204;5.778;2022-08-06T16:13:05;25.80;65.70
53520;DHT22;39397;53.204;5.778;2022-08-06T16:15:31;25.80;65.80
53520;DHT22;39397;53.204;5.778;2022-08-06T16:17:56;25.80;66.10
53520;DHT22;39397;53.204;5.778;2022-08-06T16:20:22;25.90;66.10
53520;DHT22;39397;53.204;5.778;2022-08-06T16:22:49;25.90;65.10
53520;DHT22;39397;53.204;5.778;2022-08-06T16:25:15;25.90;64.20
53520;DHT22;39397;53.204;5.778;2022-08-06T16:27:43;25.80;63.40
53520;DHT22;39397;53.204;5.778;2022-08-06T16:30:10;25.70;63.30
53520;DHT22;39397;53.204;5.778;2022-08-06T16:32:35;25.50;63.00
53520;DHT22;39397;53.204;5.778;2022-08-06T16:35:01;25.50;63.60
53520;DHT22;39397;53.204;5.778;2022-08-06T16:37:27;25.50;63.00
53520;DHT22;39397;53.204;5.778;2022-08-06T16:39:56;25.60;61.90
53520;DHT22;39397;53.204;5.778;2022-08-06T16:42:21;25.80;63.00
53520;DHT22;39397;53.204;5.778;2022-08-06T16:44:47;25.90;62.90